Time;durP1;ratioP1;P1;durP2;ratioP2;P2;SDS_P1;SDS_P2;PMS_P1;PMS_P2;Temp;Humidity;BMP_temperature;BMP_pressure;BME280_temperature;BME280_humidity;BME280_pressure;Samples;Min_cycle;Max_cycle;Signal;HPM_P1;HPM_P2
2022/08/21 07:50:50;;;;;;;18.30;3.40;;;21.50;72.60;;;;;;6187920;23;20428;-77
2022/08/21 07:53:16;;;;;;;23.25;3.83;;;21.60;73.10;;;;;;6219189;23;20005;-76
2022/08/21 07:55:50;;;;;;;17.17;3.42;;;21.60;73.20;;;;;;6218991;23;20492;-79
2022/08/21 07:58:16;;;;;;;19.70;3.33;;;21.70;73.20;;;;;;6193575;23;20073;-77
2022/08/21 08:00:42;;;;;;;9.32;2.40;;;21.70;73.10;;;;;;6219432;23;20091;-77
2022/08/21 08:03:08;;;;;;;10.98;2.67;;;21.80;73.20;;;;;;6219214;23;20027;-77
2022/08/21 08:05:36;;;;;;;10.85;2.75;;;21.80;73.00;;;;;;6219321;23;20023;-74
2022/08/21 08:08:03;;;;;;;13.88;2.85;;;21.80;72.90;;;;;;6218876;23;20019;-76
2022/08/21 08:10:28;;;;;;;19.02;4.18;;;21.80;72.90;;;;;;6219313;23;20083;-75
2022/08/21 08:12:54;;;;;;;17.58;2.60;;;21.80;73.50;;;;;;6219053;23;20062;-75
2022/08/21 08:15:23;;;;;;;18.48;3.05;;;21.90;72.80;;;;;;6219171;23;20425;-76
2022/08/21 08:17:49;;;;;;;12.10;2.05;;;21.90;72.80;;;;;;6219323;23;20020;-76
2022/08/21 08:20:16;;;;;;;16.52;3.15;;;21.90;72.70;;;;;;6219066;23;20016;-76
2022/08/21 08:22:42;;;;;;;11.43;2.42;;;21.90;72.60;;;;;;6218859;23;20027;-74
2022/08/21 08:25:10;;;;;;;15.00;2.53;;;21.90;72.50;;;;;;6192714;23;20013;-75
2022/08/21 08:27:36;;;;;;;14.35;2.55;;;22.00;72.50;;;;;;6219024;23;20020;-77
2022/08/21 08:30:03;;;;;;;10.10;2.03;;;22.00;72.40;;;;;;6218661;23;20432;-76
2022/08/21 08:32:29;;;;;;;9.77;2.25;;;22.00;72.30;;;;;;6193041;23;20020;-76
2022/08/21 08:34:55;;;;;;;9.45;2.10;;;22.00;72.30;;;;;;6218946;23;20283;-76
2022/08/21 08:37:21;;;;;;;8.25;2.15;;;22.10;72.30;;;;;;6218692;23;20027;-76
2022/08/21 08:39:48;;;;;;;8.15;1.60;;;22.10;72.20;;;;;;6193069;23;20425;-75
2022/08/21 08:42:25;;;;;;;7.95;1.48;;;22.10;72.00;;;;;;6218316;23;20020;-76
2022/08/21 08:44:58;;;;;;;12.20;2.58;;;22.10;72.60;;;;;;6192697;23;20039;-76
2022/08/21 08:47:27;;;;;;;9.05;1.73;;;22.10;71.70;;;;;;6218524;23;20031;-77
2022/08/21 08:50:04;;;;;;;16.33;2.80;;;22.20;71.60;;;;;;6192263;23;20375;-74
2022/08/21 08:52:37;;;;;;;13.15;2.75;;;22.20;71.70;;;;;;6244473;23;20040;-77
2022/08/21 08:55:09;;;;;;;6.85;1.73;;;22.10;71.50;;;;;;6222274;23;20027;-76
2022/08/21 08:57:39;;;;;;;7.18;1.90;;;22.20;71.50;;;;;;6222745;23;20146;-78
2022/08/21 09:00:10;;;;;;;9.10;2.00;;;22.20;71.40;;;;;;6249176;23;20012;-74
2022/08/21 09:02:39;;;;;;;10.30;2.08;;;22.20;71.30;;;;;;6248593;23;20059;-77
2022/08/21 09:05:07;;;;;;;10.77;2.45;;;22.20;71.30;;;;;;6222701;23;20364;-76
2022/08/21 09:08:15;;;;;;;10.02;2.72;;;22.20;71.50;;;;;;6249047;23;20305;-77
2022/08/21 09:10:57;;;;;;;18.67;2.95;;;22.30;71.90;;;;;;6248862;23;20012;-76
2022/08/21 09:13:54;;;;;;;12.88;2.85;;;22.30;71.60;;;;;;6221993;23;20085;-78
2022/08/21 09:16:30;;;;;;;11.55;2.25;;;22.30;72.30;;;;;;6167226;23;20439;-79
2022/08/21 09:19:09;;;;;;;13.60;3.25;;;22.30;72.30;;;;;;6249153;23;20019;-75
2022/08/21 09:21:48;;;;;;;12.65;2.65;;;22.40;72.70;;;;;;6248185;23;20023;-78
2022/08/21 09:24:26;;;;;;;11.70;2.58;;;22.40;72.70;;;;;;6222279;23;20066;-78
2022/08/21 09:27:11;;;;;;;11.95;2.78;;;22.50;72.90;;;;;;6247613;23;20097;-80
2022/08/21 09:29:40;;;;;;;15.80;3.13;;;22.50;72.80;;;;;;6248968;23;20028;-78
2022/08/21 09:32:28;;;;;;;10.43;2.60;;;22.50;72.60;;;;;;6248636;23;20011;-77
2022/08/21 09:35:00;;;;;;;17.17;2.97;;;22.50;72.50;;;;;;6248748;23;20027;-77
2022/08/21 09:37:28;;;;;;;8.63;1.80;;;22.50;72.40;;;;;;6222320;23;20069;-79
2022/08/21 09:39:55;;;;;;;5.68;1.90;;;22.50;72.20;;;;;;6248655;23;20083;-77
2022/08/21 09:42:32;;;;;;;11.15;2.40;;;22.50;72.10;;;;;;6248701;23;20300;-77
2022/08/21 09:45:13;;;;;;;12.15;2.38;;;22.50;72.10;;;;;;6248598;23;20031;-78
2022/08/21 09:47:40;;;;;;;8.20;1.98;;;22.60;72.20;;;;;;6221729;23;20016;-77
2022/08/21 09:50:14;;;;;;;8.65;2.72;;;22.60;72.10;;;;;;6248693;23;20012;-78
2022/08/21 09:52:53;;;;;;;16.80;2.42;;;22.60;71.70;;;;;;6248183;23;20439;-76
2022/08/21 09:58:33;;;;;;;14.25;2.45;;;22.60;71.80;;;;;;6222220;23;20045;-80
2022/08/21 10:01:01;;;;;;;14.05;2.58;;;22.60;70.80;;;;;;6222256;23;20020;-77
2022/08/21 10:03:27;;;;;;;24.27;3.05;;;22.60;70.60;;;;;;6223324;23;20143;-74
2022/08/21 10:05:58;;;;;;;19.90;2.90;;;22.60;70.90;;;;;;6248432;23;20412;-75
2022/08/21 10:08:27;;;;;;;10.38;2.17;;;22.60;70.60;;;;;;6248567;23;20031;-79
2022/08/21 10:11:05;;;;;;;21.48;3.05;;;22.70;70.80;;;;;;6248503;23;20015;-74
2022/08/21 10:13:59;;;;;;;16.75;2.85;;;22.70;69.80;;;;;;6222384;23;20110;-78
2022/08/21 10:16:43;;;;;;;10.45;2.15;;;22.70;68.80;;;;;;6221849;23;20078;-77
2022/08/21 10:19:44;;;;;;;10.93;2.08;;;22.70;68.10;;;;;;6248637;23;20024;-77
2022/08/21 10:22:36;;;;;;;9.98;2.40;;;22.70;68.00;;;;;;6126428;23;20053;-75
2022/08/21 10:25:13;;;;;;;13.25;2.20;;;22.80;68.10;;;;;;6220238;23;20031;-76
2022/08/21 10:27:49;;;;;;;16.58;2.95;;;22.70;68.10;;;;;;6248345;23;20070;-81
2022/08/21 10:30:21;;;;;;;14.27;3.03;;;22.70;68.00;;;;;;6248453;23;20022;-78
2022/08/21 10:33:13;;;;;;;11.95;1.75;;;22.80;68.00;;;;;;6248389;23;20305;-77
2022/08/21 10:35:51;;;;;;;10.98;2.67;;;22.80;67.20;;;;;;6248117;23;20016;-80
2022/08/21 10:38:42;;;;;;;6.18;1.85;;;22.80;67.30;;;;;;6248635;23;20095;-75
2022/08/21 10:41:26;;;;;;;10.15;1.98;;;22.70;66.70;;;;;;6248003;23;20417;-81
2022/08/21 10:44:10;;;;;;;7.15;1.58;;;22.80;66.60;;;;;;6248392;23;20053;-77
2022/08/21 10:46:57;;;;;;;12.35;2.42;;;22.80;65.60;;;;;;6247863;23;20017;-77
2022/08/21 10:49:32;;;;;;;8.93;1.75;;;22.80;65.70;;;;;;6247817;23;20078;-78
2022/08/21 10:52:32;;;;;;;8.05;1.77;;;22.80;64.90;;;;;;6248366;23;20319;-78
2022/08/21 10:55:22;;;;;;;6.45;2.10;;;22.80;65.50;;;;;;6247695;23;20417;-79
2022/08/21 10:57:58;;;;;;;9.40;1.75;;;22.80;65.20;;;;;;6247943;23;20368;-79
2022/08/21 11:00:34;;;;;;;9.20;1.73;;;22.80;65.00;;;;;;6247503;23;20016;-76
2022/08/21 11:03:27;;;;;;;9.27;1.63;;;22.80;65.30;;;;;;6247877;23;20016;-76
2022/08/21 11:06:06;;;;;;;9.07;1.65;;;22.80;65.20;;;;;;6247800;23;20012;-75
2022/08/21 11:08:39;;;;;;;8.05;1.42;;;22.80;65.00;;;;;;6247623;23;20113;-79
2022/08/21 11:11:10;;;;;;;6.30;1.27;;;22.80;65.40;;;;;;6247990;23;20097;-76
2022/08/21 11:13:40;;;;;;;7.05;1.30;;;22.90;65.60;;;;;;6247429;23;20016;-75
2022/08/21 11:16:24;;;;;;;6.05;1.42;;;22.90;64.50;;;;;;6247905;23;20020;-76
2022/08/21 11:19:08;;;;;;;5.88;1.60;;;22.90;64.20;;;;;;6248050;23;20023;-76
2022/08/21 11:22:06;;;;;;;7.75;1.75;;;22.90;64.20;;;;;;6247035;23;20294;-75
2022/08/21 11:24:37;;;;;;;7.70;2.17;;;22.90;64.20;;;;;;6205333;23;20020;-75
2022/08/21 11:27:32;;;;;;;11.27;2.17;;;22.90;64.40;;;;;;6247872;23;20085;-75
2022/08/21 11:30:00;;;;;;;10.00;1.60;;;22.90;64.80;;;;;;6247301;23;20027;-76
2022/08/21 11:32:43;;;;;;;6.60;1.83;;;22.90;65.30;;;;;;6247557;23;20286;-76
2022/08/21 11:35:09;;;;;;;;;;;22.90;65.90;;;;;;6221635;23;20059;-75
2022/08/21 11:37:59;;;;;;;10.10;1.67;;;22.90;65.80;;;;;;6247685;23;19926;-75
2022/08/21 11:40:42;;;;;;;9.25;1.35;;;22.90;65.00;;;;;;6248007;23;20278;-77
2022/08/21 11:43:11;;;;;;;6.95;1.50;;;22.90;63.90;;;;;;6247359;23;20020;-74
2022/08/21 11:45:53;;;;;;;7.70;1.23;;;22.90;64.40;;;;;;6220620;23;20016;-76
2022/08/21 11:48:24;;;;;;;10.25;1.50;;;22.90;64.40;;;;;;6247688;23;20021;-72
2022/08/21 11:50:52;;;;;;;6.07;1.45;;;22.90;64.90;;;;;;6247018;23;20394;-80
2022/08/21 11:53:50;;;;;;;7.07;1.73;;;22.90;65.30;;;;;;6195705;23;20490;-76
2022/08/21 11:56:25;;;;;;;8.05;1.88;;;22.90;66.00;;;;;;6247789;23;20019;-76
2022/08/21 11:58:59;;;;;;;11.32;1.83;;;23.00;66.30;;;;;;6220590;23;20016;-75
2022/08/21 12:01:32;;;;;;;8.23;1.48;;;23.00;66.20;;;;;;6247370;23;20312;-75
2022/08/21 12:04:07;;;;;;;5.95;1.35;;;23.00;65.80;;;;;;6247280;23;20087;-75
2022/08/21 12:06:39;;;;;;;12.80;2.15;;;23.00;65.50;;;;;;6247684;23;20023;-76
2022/08/21 12:09:23;;;;;;;13.38;2.58;;;23.00;65.70;;;;;;6246902;23;20016;-73
2022/08/21 12:12:03;;;;;;;7.25;1.50;;;23.00;64.70;;;;;;6247680;23;20012;-78
2022/08/21 12:14:39;;;;;;;9.60;1.73;;;23.00;64.60;;;;;;6247319;23;20365;-77
2022/08/21 12:17:07;;;;;;;6.15;1.38;;;23.00;64.40;;;;;;6247502;23;20095;-76
2022/08/21 12:19:34;;;;;;;7.00;1.58;;;23.00;64.80;;;;;;6247268;23;20428;-78
2022/08/21 12:22:03;;;;;;;8.38;1.40;;;23.00;64.90;;;;;;6246638;23;20309;-78
2022/08/21 12:24:42;;;;;;;15.05;2.58;;;23.00;64.50;;;;;;6246997;23;20480;-76
2022/08/21 12:27:19;;;;;;;7.75;1.55;;;23.10;65.00;;;;;;6247001;23;20109;-78
2022/08/21 12:29:48;;;;;;;9.75;2.20;;;23.10;65.40;;;;;;6247616;23;20064;-78
2022/08/21 12:32:15;;;;;;;7.47;1.70;;;23.10;65.40;;;;;;6249245;23;20079;-76
2022/08/21 12:35:02;;;;;;;6.40;1.75;;;23.10;64.80;;;;;;6222932;23;20024;-78
2022/08/21 12:37:45;;;;;;;5.55;1.70;;;23.10;65.60;;;;;;6240766;23;20012;-78
2022/08/21 12:40:31;;;;;;;5.28;1.27;;;23.10;65.50;;;;;;6249145;23;20344;-80
2022/08/21 12:43:01;;;;;;;10.00;1.92;;;23.10;65.70;;;;;;6248934;23;20012;-85
2022/08/21 12:45:42;;;;;;;7.20;1.63;;;23.10;65.80;;;;;;6248041;23;20020;-82
2022/08/21 12:48:23;;;;;;;5.85;1.60;;;23.10;65.70;;;;;;6247931;23;20073;-78
2022/08/21 12:51:00;;;;;;;5.45;1.60;;;23.10;65.90;;;;;;6221523;23;20052;-84
2022/08/21 12:53:49;;;;;;;7.55;1.63;;;23.10;65.30;;;;;;6197458;23;20413;-77
2022/08/21 12:56:17;;;;;;;11.07;1.73;;;23.10;65.20;;;;;;6222482;23;20355;-79
2022/08/21 12:58:50;;;;;;;8.98;2.42;;;23.10;65.00;;;;;;6249113;23;20087;-77
2022/08/21 13:01:38;;;;;;;7.37;1.73;;;23.10;65.00;;;;;;6248447;23;20016;-76
2022/08/21 13:04:11;;;;;;;11.45;2.72;;;23.10;64.80;;;;;;6248362;23;20081;-77
2022/08/21 13:06:43;;;;;;;7.03;1.53;;;23.10;63.70;;;;;;6249244;23;20020;-77
2022/08/21 13:09:13;;;;;;;7.25;1.60;;;23.10;63.90;;;;;;6197327;23;20316;-77
2022/08/21 13:11:45;;;;;;;5.90;2.33;;;23.10;63.60;;;;;;6222458;23;20016;-77
2022/08/21 13:14:27;;;;;;;7.43;2.03;;;23.10;63.30;;;;;;6248861;23;20024;-77
2022/08/21 13:16:58;;;;;;;7.28;2.50;;;23.10;63.90;;;;;;6249399;23;20016;-79
2022/08/21 13:19:25;;;;;;;6.50;2.33;;;23.10;64.60;;;;;;6248825;23;20016;-78
2022/08/21 13:21:52;;;;;;;15.85;3.55;;;23.10;64.70;;;;;;6249176;23;20068;-77
2022/08/21 13:24:37;;;;;;;18.83;4.28;;;23.10;65.60;;;;;;6248605;23;20027;-83
2022/08/21 13:27:03;;;;;;;16.67;3.00;;;23.20;66.20;;;;;;6222251;23;20016;-81
2022/08/21 13:29:32;;;;;;;13.50;2.45;;;23.20;67.40;;;;;;6221972;23;20012;-81
2022/08/21 13:32:02;;;;;;;13.77;2.10;;;23.20;68.10;;;;;;6248570;23;20090;-80
2022/08/21 13:34:36;;;;;;;8.85;2.00;;;23.20;69.20;;;;;;6248519;23;20019;-79
2022/08/21 13:37:08;;;;;;;8.38;2.10;;;23.20;69.90;;;;;;6221914;23;20417;-80
2022/08/21 13:39:34;;;;;;;12.60;2.67;;;23.20;69.90;;;;;;6222006;23;20016;-81
2022/08/21 13:42:05;;;;;;;8.25;2.30;;;23.20;69.50;;;;;;6248325;23;20020;-81
2022/08/21 13:44:36;;;;;;;6.95;2.08;;;23.20;69.70;;;;;;6248543;23;20031;-80
2022/08/21 13:47:04;;;;;;;9.65;1.88;;;23.20;69.70;;;;;;6221815;23;20377;-81
2022/08/21 13:49:38;;;;;;;7.18;2.08;;;23.30;69.60;;;;;;6248178;23;20019;-80
2022/08/21 13:52:12;;;;;;;7.80;1.70;;;23.20;69.50;;;;;;6248947;23;20270;-79
2022/08/21 13:54:41;;;;;;;7.47;1.30;;;23.20;69.40;;;;;;6222081;23;20407;-79
2022/08/21 13:57:29;;;;;;;5.00;1.70;;;23.20;69.30;;;;;;6222401;23;20451;-79
2022/08/21 14:00:19;;;;;;;7.85;1.40;;;23.30;69.30;;;;;;6248579;23;20024;-80
2022/08/21 14:02:48;;;;;;;2.75;1.35;;;23.20;69.20;;;;;;6196605;23;20020;-82
2022/08/21 14:05:20;;;;;;;4.10;1.35;;;23.20;69.20;;;;;;6248478;23;20420;-80
2022/08/21 14:07:47;;;;;;;3.28;1.08;;;23.20;69.10;;;;;;6248231;23;20020;-80
2022/08/21 14:10:18;;;;;;;5.75;1.92;;;23.20;69.00;;;;;;6196734;23;20016;-79
2022/08/21 14:12:54;;;;;;;2.15;1.17;;;23.30;69.00;;;;;;6248037;23;20078;-80
2022/08/21 14:15:34;;;;;;;4.65;1.20;;;23.30;68.90;;;;;;6244401;23;20085;-80
2022/08/21 14:18:15;;;;;;;6.82;1.60;;;23.30;68.80;;;;;;6247944;23;20028;-80
2022/08/21 14:20:42;;;;;;;5.72;1.40;;;23.30;68.80;;;;;;6248043;23;20023;-83
2022/08/21 14:23:08;;;;;;;7.65;2.10;;;23.30;68.60;;;;;;6221279;23;20040;-83
2022/08/21 14:25:45;;;;;;;5.45;1.33;;;23.30;67.90;;;;;;6221380;23;20016;-83
2022/08/21 14:28:38;;;;;;;5.10;1.63;;;23.30;66.60;;;;;;6196704;23;20069;-83
2022/08/21 14:31:20;;;;;;;6.20;1.45;;;23.20;65.70;;;;;;6222471;23;20019;-83
2022/08/21 14:33:46;;;;;;;10.98;2.58;;;23.20;65.40;;;;;;6221460;23;20098;-78
2022/08/21 14:36:12;;;;;;;10.27;2.15;;;23.20;65.40;;;;;;6221398;23;20077;-80
2022/08/21 14:38:40;;;;;;;13.10;2.08;;;23.20;65.10;;;;;;6221527;23;20054;-84
2022/08/21 14:41:16;;;;;;;12.05;1.98;;;23.20;65.40;;;;;;6247213;23;20004;-80
2022/08/21 14:43:43;;;;;;;13.45;1.95;;;23.20;65.20;;;;;;6248149;23;20008;-80
2022/08/21 14:46:09;;;;;;;14.23;2.45;;;23.20;65.00;;;;;;6248094;23;20293;-77
2022/08/21 14:48:34;;;;;;;15.68;2.53;;;23.20;64.50;;;;;;6247581;23;20096;-81
2022/08/21 14:51:00;;;;;;;9.35;2.03;;;23.20;64.30;;;;;;6221187;23;20436;-80
2022/08/21 14:53:26;;;;;;;8.80;1.90;;;23.20;63.20;;;;;;6247632;23;20027;-80
2022/08/21 14:56:07;;;;;;;7.40;1.48;;;23.20;62.90;;;;;;6247915;23;20103;-78
2022/08/21 14:58:38;;;;;;;10.40;1.52;;;23.20;63.00;;;;;;6247797;23;20020;-80
2022/08/21 15:01:07;;;;;;;7.13;1.27;;;23.20;62.90;;;;;;6247726;23;20417;-78
2022/08/21 15:03:33;;;;;;;11.80;1.92;;;23.20;62.90;;;;;;6247881;23;20062;-80
2022/08/21 15:06:02;;;;;;;11.02;2.08;;;23.20;63.40;;;;;;6247785;23;20063;-79
2022/08/21 15:08:28;;;;;;;7.43;1.63;;;23.30;63.40;;;;;;6221295;23;20313;-79
2022/08/21 15:10:54;;;;;;;13.40;2.40;;;23.30;63.80;;;;;;6248083;23;20087;-78
2022/08/21 15:13:21;;;;;;;10.18;2.40;;;23.30;63.90;;;;;;6247852;23;20012;-82
2022/08/21 15:15:49;;;;;;;12.15;2.10;;;23.40;63.90;;;;;;6248020;23;20027;-78
2022/08/21 15:18:15;;;;;;;9.52;2.08;;;23.40;64.30;;;;;;6247679;23;20045;-78
2022/08/21 15:20:41;;;;;;;11.75;1.90;;;23.40;63.60;;;;;;6247719;23;20067;-77
2022/08/21 15:23:08;;;;;;;11.30;2.10;;;23.40;62.50;;;;;;6247838;23;20429;-78
2022/08/21 15:25:35;;;;;;;6.68;1.70;;;23.40;62.60;;;;;;6247554;23;20043;-79
2022/08/21 15:28:01;;;;;;;6.50;1.52;;;23.40;62.40;;;;;;6247975;23;20309;-79
2022/08/21 15:30:30;;;;;;;7.78;2.03;;;23.40;61.90;;;;;;6247625;23;20020;-79
2022/08/21 15:32:56;;;;;;;11.15;1.65;;;23.30;61.80;;;;;;6248175;23;20086;-79
2022/08/21 15:35:22;;;;;;;6.28;1.77;;;23.30;61.50;;;;;;6247767;23;20012;-80
2022/08/21 15:37:47;;;;;;;9.18;1.98;;;23.40;61.60;;;;;;6247559;23;20328;-80
2022/08/21 15:40:14;;;;;;;10.88;2.50;;;23.40;61.80;;;;;;6221346;23;20409;-79
2022/08/21 15:42:41;;;;;;;10.82;1.90;;;23.40;62.30;;;;;;6221169;23;20425;-76
2022/08/21 15:45:10;;;;;;;6.43;1.70;;;23.40;62.40;;;;;;6247609;23;20016;-78
2022/08/21 15:47:38;;;;;;;6.93;1.92;;;23.40;61.70;;;;;;6246704;23;20092;-78
2022/08/21 15:50:07;;;;;;;9.77;2.03;;;23.40;61.70;;;;;;6247400;23;20020;-78
2022/08/21 15:52:33;;;;;;;9.90;1.88;;;23.40;61.90;;;;;;6247533;23;20016;-77
2022/08/21 15:54:59;;;;;;;7.93;1.92;;;23.40;62.40;;;;;;6247722;23;20270;-78
2022/08/21 15:57:26;;;;;;;7.57;2.03;;;23.40;63.20;;;;;;6247690;23;20027;-77
2022/08/21 15:59:56;;;;;;;7.22;1.52;;;23.30;63.50;;;;;;6247520;23;20119;-78
2022/08/21 16:02:26;;;;;;;5.88;1.27;;;23.40;63.80;;;;;;6247197;23;20017;-78
2022/08/21 16:04:53;;;;;;;7.78;1.60;;;23.40;64.10;;;;;;6248117;23;20024;-77
2022/08/21 16:07:18;;;;;;;7.72;1.40;;;23.30;63.90;;;;;;6249559;23;20016;-77
2022/08/21 16:09:44;;;;;;;7.18;1.90;;;23.40;64.20;;;;;;6249321;23;20023;-77
2022/08/21 16:12:16;;;;;;;4.60;1.38;;;23.30;64.30;;;;;;6223511;23;20027;-78
2022/08/21 16:14:42;;;;;;;7.22;2.10;;;23.40;64.50;;;;;;6249406;23;20012;-79
2022/08/21 16:17:08;;;;;;;6.28;1.45;;;23.40;64.40;;;;;;6223271;23;20103;-77
2022/08/21 16:19:36;;;;;;;9.25;1.85;;;23.40;64.50;;;;;;6249627;23;20096;-78
2022/08/21 16:22:02;;;;;;;10.93;1.98;;;23.40;63.90;;;;;;6249177;23;20024;-79
2022/08/21 16:24:28;;;;;;;7.13;2.20;;;23.40;63.60;;;;;;6249850;23;20016;-77
2022/08/21 16:26:54;;;;;;;6.88;1.30;;;23.40;63.50;;;;;;6249552;23;20440;-78
2022/08/21 16:29:21;;;;;;;9.82;2.40;;;23.40;63.50;;;;;;6249872;23;20020;-78
2022/08/21 16:31:48;;;;;;;10.27;2.05;;;23.40;63.10;;;;;;6249596;23;20122;-78
2022/08/21 16:34:19;;;;;;;8.50;2.17;;;23.40;62.80;;;;;;6248415;23;20514;-77
2022/08/21 16:36:45;;;;;;;11.77;2.17;;;23.40;62.30;;;;;;6248819;23;20066;-78
2022/08/21 16:39:11;;;;;;;14.65;2.63;;;23.40;61.80;;;;;;6248842;23;20032;-80
2022/08/21 16:41:37;;;;;;;12.13;2.70;;;23.40;61.50;;;;;;6222340;23;20048;-81
2022/08/21 16:44:04;;;;;;;12.68;2.20;;;23.40;61.30;;;;;;6249068;23;20044;-81
2022/08/21 16:46:35;;;;;;;14.88;2.72;;;23.40;60.80;;;;;;6222405;23;20052;-79
2022/08/21 16:49:02;;;;;;;18.73;2.95;;;23.40;60.60;;;;;;6249054;23;20036;-80
2022/08/21 16:51:30;;;;;;;19.52;2.80;;;23.40;60.10;;;;;;6249370;23;20020;-79
2022/08/21 16:53:57;;;;;;;11.48;2.63;;;23.30;59.60;;;;;;6248938;23;20275;-78
2022/08/21 16:56:23;;;;;;;9.88;2.17;;;23.20;58.90;;;;;;6248892;23;20030;-79
2022/08/21 16:58:52;;;;;;;9.05;2.35;;;23.20;58.70;;;;;;6248382;23;20096;-81
2022/08/21 17:01:21;;;;;;;4.68;2.03;;;23.10;58.80;;;;;;6249005;23;20027;-79
2022/08/21 17:03:49;;;;;;;9.95;2.67;;;23.10;59.00;;;;;;6248364;23;20344;-81
2022/08/21 17:06:16;;;;;;;5.88;2.03;;;23.00;59.40;;;;;;6247281;23;20087;-79
2022/08/21 17:08:46;;;;;;;8.88;2.42;;;23.00;60.00;;;;;;6247343;23;20020;-81
2022/08/21 17:11:27;;;;;;;4.90;2.28;;;23.00;60.40;;;;;;6248910;23;20095;-80
2022/08/21 17:13:55;;;;;;;8.95;2.67;;;22.90;60.80;;;;;;6246254;23;20063;-78
2022/08/21 17:16:21;;;;;;;9.60;2.50;;;22.90;61.20;;;;;;6248629;23;20024;-79
2022/08/21 17:18:47;;;;;;;8.40;2.47;;;22.90;61.50;;;;;;6248638;23;20408;-78
2022/08/21 17:21:14;;;;;;;6.75;2.10;;;22.80;61.40;;;;;;6248862;23;20016;-77
2022/08/21 17:23:39;;;;;;;9.48;2.60;;;22.80;61.50;;;;;;6248947;23;20027;-77
2022/08/21 17:26:05;;;;;;;8.00;2.80;;;22.70;61.70;;;;;;6248513;23;20016;-76
2022/08/21 17:28:34;;;;;;;7.07;2.15;;;22.70;61.70;;;;;;6248861;23;20020;-78
2022/08/21 17:31:01;;;;;;;9.57;2.33;;;22.70;61.80;;;;;;6248220;23;20408;-76
2022/08/21 17:33:33;;;;;;;6.80;2.60;;;22.60;62.00;;;;;;6248737;23;20413;-76
2022/08/21 17:36:00;;;;;;;9.18;2.30;;;22.60;62.00;;;;;;6248605;23;20012;-76
2022/08/21 17:38:26;;;;;;;9.18;2.75;;;22.50;62.00;;;;;;6248953;23;20019;-77
2022/08/21 17:40:53;;;;;;;6.97;2.38;;;22.50;62.20;;;;;;6248726;23;20401;-76
2022/08/21 17:43:19;;;;;;;6.47;1.95;;;22.50;62.40;;;;;;6248485;23;20027;-78
2022/08/21 17:45:45;;;;;;;7.60;2.30;;;22.50;62.50;;;;;;6248173;23;20016;-77
2022/08/21 17:48:11;;;;;;;8.18;2.22;;;22.50;62.50;;;;;;6248482;23;20097;-76
2022/08/21 17:50:36;;;;;;;8.70;3.05;;;22.40;62.40;;;;;;6248883;23;20020;-77
2022/08/21 17:53:02;;;;;;;7.45;2.75;;;22.40;62.50;;;;;;6248514;23;20020;-78
2022/08/21 18:06:05;;;;;;;8.35;2.40;;;22.50;63.20;;;;;;6193959;22;20028;-71
2022/08/21 18:08:32;;;;;;;8.70;2.35;;;22.60;63.20;;;;;;6218306;23;20056;-75
2022/08/21 18:10:58;;;;;;;8.32;2.40;;;22.50;63.10;;;;;;6217600;23;20017;-75
2022/08/21 18:13:27;;;;;;;4.72;1.80;;;22.50;63.20;;;;;;6218612;23;20021;-75
2022/08/21 18:15:55;;;;;;;8.32;1.95;;;22.40;63.10;;;;;;6191036;23;20020;-75
2022/08/21 18:18:24;;;;;;;7.35;2.10;;;22.40;63.30;;;;;;6217841;23;20016;-75
2022/08/21 18:20:51;;;;;;;5.57;2.05;;;22.30;63.60;;;;;;6218215;23;20086;-76
2022/08/21 18:23:17;;;;;;;7.15;2.45;;;22.30;63.80;;;;;;6217901;23;20286;-76
2022/08/21 18:25:50;;;;;;;8.30;2.08;;;22.20;63.90;;;;;;6217866;23;20055;-76
2022/08/21 18:28:16;;;;;;;8.75;2.63;;;22.20;64.00;;;;;;6217421;23;20021;-75
2022/08/21 18:30:42;;;;;;;6.82;2.20;;;22.10;64.20;;;;;;6218085;23;20317;-76
2022/08/21 18:33:11;;;;;;;6.97;2.47;;;22.10;64.20;;;;;;6218126;23;20317;-76
2022/08/21 18:35:37;;;;;;;9.02;2.28;;;22.10;64.10;;;;;;6191232;23;20295;-75
2022/08/21 18:38:03;;;;;;;8.73;2.40;;;22.10;64.10;;;;;;6217998;23;20011;-76
2022/08/21 18:40:31;;;;;;;8.07;2.20;;;22.10;64.20;;;;;;6217836;23;20017;-75
2022/08/21 18:42:58;;;;;;;7.60;2.05;;;22.10;64.30;;;;;;6217586;23;20082;-75
2022/08/21 18:45:24;;;;;;;9.23;2.05;;;22.00;64.30;;;;;;6217054;23;20485;-75
2022/08/21 18:47:53;;;;;;;7.07;2.13;;;22.00;64.50;;;;;;6217421;23;20101;-75
2022/08/21 18:50:22;;;;;;;9.82;2.63;;;21.90;64.70;;;;;;6217515;23;20082;-76
2022/08/21 18:52:48;;;;;;;7.50;2.13;;;21.90;65.00;;;;;;6218008;23;20094;-74
2022/08/21 18:55:17;;;;;;;6.90;2.15;;;21.80;65.20;;;;;;6217500;23;20013;-75
2022/08/21 18:57:43;;;;;;;6.95;2.20;;;21.80;65.40;;;;;;6217599;23;20016;-75
2022/08/21 19:00:19;;;;;;;5.85;1.67;;;21.70;65.70;;;;;;6217742;23;20090;-71
2022/08/21 19:02:46;;;;;;;7.50;2.65;;;21.70;65.90;;;;;;6217254;23;20016;-78
2022/08/21 19:14:07;;;;;;;8.63;2.60;;;21.50;66.70;;;;;;6186043;22;20094;-74
2022/08/21 19:16:33;;;;;;;10.88;2.58;;;21.50;66.80;;;;;;6186629;23;20036;-73
2022/08/21 19:19:00;;;;;;;9.07;3.17;;;21.50;67.60;;;;;;6188096;23;20016;-74
2022/08/21 19:21:26;;;;;;;8.82;3.40;;;21.40;67.00;;;;;;6187715;23;20020;-74
2022/08/21 19:23:52;;;;;;;11.32;3.92;;;21.40;67.30;;;;;;6187269;23;20144;-74
2022/08/21 19:26:20;;;;;;;13.98;3.55;;;21.40;67.40;;;;;;6186376;23;20009;-74
2022/08/21 19:28:49;;;;;;;9.85;2.78;;;21.30;67.50;;;;;;6187643;23;20075;-73
2022/08/21 19:31:27;;;;;;;10.38;3.15;;;21.30;67.50;;;;;;6186588;23;20100;-75
2022/08/21 19:34:01;;;;;;;8.85;2.95;;;21.30;67.30;;;;;;6187216;23;20056;-73
2022/08/21 19:36:28;;;;;;;11.05;3.00;;;21.30;67.30;;;;;;6187498;23;20027;-74
2022/08/21 19:38:54;;;;;;;7.75;2.72;;;21.20;67.40;;;;;;6161481;23;20017;-74
2022/08/21 19:41:24;;;;;;;10.73;3.10;;;21.20;67.70;;;;;;6189144;23;20017;-74
2022/08/21 19:43:53;;;;;;;8.45;2.92;;;21.10;68.10;;;;;;6189582;23;20029;-74
2022/08/21 19:46:27;;;;;;;11.95;2.78;;;21.20;68.30;;;;;;6189436;23;20021;-75
2022/08/21 19:48:54;;;;;;;;;;;21.20;68.20;;;;;;6189755;23;20021;-75
2022/08/21 19:51:20;;;;;;;6.45;2.28;;;21.30;67.80;;;;;;6190071;23;19920;-74
2022/08/21 19:53:45;;;;;;;7.10;2.92;;;21.40;68.20;;;;;;6190848;23;20449;-73
2022/08/21 19:56:17;;;;;;;8.98;2.45;;;21.40;68.10;;;;;;6189411;23;20421;-76
2022/08/21 19:58:46;;;;;;;8.23;3.30;;;21.50;68.20;;;;;;6189354;23;20068;-74
2022/08/21 20:01:13;;;;;;;6.63;2.95;;;21.50;68.10;;;;;;6189559;23;20024;-76
2022/08/21 20:03:39;;;;;;;8.20;2.97;;;21.60;68.00;;;;;;6189396;23;20016;-75
2022/08/21 20:06:05;;;;;;;7.78;3.67;;;21.60;67.80;;;;;;6189465;23;20088;-75
2022/08/21 20:08:31;;;;;;;9.88;4.03;;;21.60;68.00;;;;;;6189191;23;20489;-74
2022/08/21 20:11:00;;;;;;;11.18;3.80;;;21.70;68.10;;;;;;6189197;23;20422;-75
2022/08/21 20:13:31;;;;;;;10.25;4.63;;;21.70;67.80;;;;;;6189571;23;20023;-74
2022/08/21 20:15:57;;;;;;;10.68;4.43;;;21.70;67.90;;;;;;6189188;23;20021;-74
2022/08/21 20:18:23;;;;;;;8.88;3.90;;;21.80;67.70;;;;;;6163130;23;20021;-74
2022/08/21 20:20:48;;;;;;;9.85;4.20;;;21.80;67.80;;;;;;6189593;23;20028;-74
2022/08/21 20:23:17;;;;;;;10.13;4.43;;;21.80;67.80;;;;;;6189273;23;20418;-75
2022/08/21 20:25:44;;;;;;;10.07;4.97;;;21.90;67.70;;;;;;6162929;23;20031;-75
2022/08/21 20:28:10;;;;;;;10.70;4.07;;;21.90;67.60;;;;;;6189264;23;20048;-75
2022/08/21 20:30:35;;;;;;;9.15;3.92;;;21.90;67.60;;;;;;6163731;23;20303;-74
2022/08/21 20:33:01;;;;;;;8.18;3.35;;;21.90;67.60;;;;;;6189242;23;20021;-75
2022/08/21 20:35:27;;;;;;;9.35;4.05;;;22.00;67.70;;;;;;6189192;23;20017;-75
2022/08/21 20:37:53;;;;;;;6.18;3.03;;;22.00;67.50;;;;;;6188680;23;20099;-74
2022/08/21 20:40:19;;;;;;;10.10;3.58;;;22.00;67.50;;;;;;6188780;23;20021;-75
2022/08/21 20:42:48;;;;;;;7.75;3.67;;;22.00;67.50;;;;;;6189150;23;20017;-76
2022/08/21 20:45:24;;;;;;;6.93;3.47;;;22.00;67.40;;;;;;6188688;23;20414;-75
2022/08/21 20:47:56;;;;;;;9.10;3.63;;;22.00;67.50;;;;;;6189085;23;20069;-76
2022/08/21 20:50:26;;;;;;;8.25;3.35;;;22.00;67.70;;;;;;6162882;23;20024;-78
2022/08/21 20:53:00;;;;;;;10.15;3.53;;;22.00;67.50;;;;;;6189212;23;20017;-77
2022/08/21 20:55:28;;;;;;;9.13;3.50;;;22.00;67.50;;;;;;6189783;23;20072;-75
